createdAt,value
2022-09-28T00:12:27.356Z,14.8
2022-09-28T00:27:36.845Z,15.2
2022-09-28T00:42:46.734Z,14.7
2022-09-28T00:57:56.244Z,19.5
2022-09-28T01:13:06.066Z,19.5
2022-09-28T01:28:15.487Z,19.6
2022-09-28T01:43:24.665Z,18.2
2022-09-28T01:58:33.840Z,16
2022-09-28T02:13:43.101Z,15.4
2022-09-28T02:28:52.592Z,15.1
2022-09-28T02:44:02.181Z,17.3
2022-09-28T02:59:11.875Z,13
2022-09-28T03:14:21.397Z,19.8
2022-09-28T03:29:30.701Z,13.4
2022-09-28T03:44:40.208Z,12.6
2022-09-28T03:59:49.677Z,13.9
2022-09-28T04:14:59.656Z,17.5
2022-09-28T04:30:09.420Z,12.7
2022-09-28T04:45:18.658Z,14
2022-09-28T05:00:28.850Z,14.6
2022-09-28T05:15:37.528Z,17.7
2022-09-28T05:30:47.429Z,13.8
2022-09-28T05:45:56.884Z,13.4
2022-09-28T06:01:06.949Z,14.4
2022-09-28T06:16:17.527Z,16
2022-09-28T06:31:27.433Z,16
2022-09-28T06:46:36.955Z,2.8
2022-09-28T07:01:47.368Z,6.9
2022-09-28T07:17:15.235Z,7.8
2022-09-28T07:32:25.619Z,6.5
2022-09-28T07:47:35.699Z,11.6
2022-09-28T08:02:45.574Z,9.4
2022-09-28T08:18:03.246Z,12.4
2022-09-28T08:33:13.089Z,10.4
2022-09-28T08:48:22.695Z,6.8
2022-09-28T09:03:31.900Z,5.9
2022-09-28T09:18:41.501Z,5.7
2022-09-28T09:33:50.438Z,3.9
2022-09-28T09:49:01.457Z,3.5
2022-09-28T10:04:11.182Z,3.8
2022-09-28T10:19:20.523Z,6.4
2022-09-28T10:34:30.981Z,4.3
2022-09-28T10:49:47.573Z,6.3
2022-09-28T11:04:59.252Z,7.6
2022-09-28T11:20:08.835Z,6.2
2022-09-28T11:35:18.796Z,5.5
2022-09-28T11:50:28.177Z,5.2
2022-09-28T12:05:37.516Z,5.8
2022-09-28T12:20:46.884Z,6.8
2022-09-28T12:35:56.823Z,4.8
2022-09-28T12:51:06.486Z,5.4
2022-09-28T13:06:16.189Z,4.2
2022-09-28T13:21:25.747Z,3.6
2022-09-28T13:36:36.450Z,3.7
2022-09-28T13:51:46.240Z,3
2022-09-28T14:06:56.234Z,3.3
2022-09-28T14:22:06.261Z,3.7
2022-09-28T14:37:15.936Z,5
2022-09-28T14:52:25.443Z,6.1
2022-09-28T15:07:34.321Z,4.6
2022-09-28T15:22:44.087Z,5.1
2022-09-28T15:37:53.780Z,5.3
2022-09-28T15:53:03.265Z,4.9
2022-09-28T16:08:13.209Z,6.5
2022-09-28T16:23:22.359Z,4.5
2022-09-28T16:38:32.099Z,6
2022-09-28T16:53:41.567Z,6.4
2022-09-28T17:08:51.824Z,9
2022-09-28T17:24:02.251Z,9
2022-09-28T17:39:11.769Z,7.7
2022-09-28T17:54:22.409Z,13.5
2022-09-28T18:09:32.152Z,14.9
2022-09-28T18:24:41.758Z,20.8
2022-09-28T18:42:41.683Z,18.2
2022-09-28T18:57:52.687Z,13.8
2022-09-28T19:13:02.218Z,14.9
2022-09-28T19:28:11.875Z,11.2
2022-09-28T19:43:21.360Z,9.3
2022-09-28T19:59:01.693Z,11.7
2022-09-28T20:14:11.501Z,13.4
2022-09-28T20:29:21.021Z,12.9
2022-09-28T20:44:30.460Z,10.4
2022-09-28T20:59:39.496Z,10.2
2022-09-28T21:14:48.755Z,10.6
2022-09-28T21:29:57.984Z,9.5
2022-09-28T21:45:07.464Z,12.3
2022-09-28T22:00:16.921Z,11.3
2022-09-28T22:15:27.388Z,9.7
2022-09-28T22:30:36.629Z,10.3
2022-09-28T22:45:46.654Z,8.6
2022-09-28T23:00:55.925Z,8.3
2022-09-28T23:16:05.331Z,13.2
2022-09-28T23:31:15.055Z,9.1
2022-09-28T23:46:25.166Z,9.3
